Time;durP1;ratioP1;P1;durP2;ratioP2;P2;SDS_P1;SDS_P2;PMS_P1;PMS_P2;Temp;Humidity;BMP_temperature;BMP_pressure;BME280_temperature;BME280_humidity;BME280_pressure;Samples;Min_cycle;Max_cycle;Signal;HPM_P1;HPM_P2
2024/02/25 00:00:10;;;;;;;;;;;;;;;6.06;88.74;99058.81;5118080;28;19927;-66
2024/02/25 00:02:40;;;;;;;;;;;;;;;6.05;88.20;99063.03;5118062;28;19953;-66
2024/02/25 00:05:09;;;;;;;;;;;;;;;6.03;88.91;99058.78;5117636;28;19926;-66
2024/02/25 00:07:38;;;;;;;;;;;;;;;6.03;88.55;99063.84;5117937;28;20026;-66
2024/02/25 00:10:07;;;;;;;;;;;;;;;6.00;89.18;99056.22;5117854;28;19966;-66
2024/02/25 00:12:37;;;;;;;;;;;;;;;6.02;89.30;99057.09;5117897;28;19967;-66
2024/02/25 00:15:06;;;;;;;;;;;;;;;6.02;89.28;99052.88;5117620;28;19919;-66
2024/02/25 00:17:35;;;;;;;;;;;;;;;5.98;89.15;99045.25;5117593;28;19919;-66
2024/02/25 00:20:04;;;;;;;;;;;;;;;6.00;89.66;99058.75;5117391;28;19927;-66
2024/02/25 00:22:32;;;;;;;;;;;;;;;5.98;89.16;99055.38;5117674;28;19919;-66
2024/02/25 00:25:01;;;;;;;;;;;;;;;5.99;89.25;99052.00;5117345;28;19919;-66
2024/02/25 00:27:29;;;;;;;;;;;;;;;5.99;89.58;99057.94;5117657;28;20113;-66
2024/02/25 00:29:59;;;;;;;;;;;;;;;5.98;89.62;99051.16;5116320;28;19919;-66
2024/02/25 00:32:29;;;;;;;;;;;;;;;5.95;88.93;99050.31;5099694;28;19925;-65
2024/02/25 00:34:58;;;;;;;;;;;;;;;5.90;89.39;99062.09;5117481;27;19926;-66
2024/02/25 00:37:27;;;;;;;;;;;;;;;5.86;88.83;99060.34;5116174;28;19972;-66
2024/02/25 00:39:56;;;;;;;;;;;;;;;5.75;88.92;99061.91;5117792;28;19965;-66
2024/02/25 00:42:25;;;;;;;;;;;;;;;5.76;89.08;99063.63;5117348;28;20358;-66
2024/02/25 00:44:53;;;;;;;;;;;;;;;5.74;89.03;99065.25;5117192;28;19924;-65
2024/02/25 00:47:23;;;;;;;;;;;;;;;5.76;89.30;99058.56;5116956;28;19973;-66
2024/02/25 00:49:52;;;;;;;;;;;;;;;5.74;89.39;99061.06;5117266;28;19924;-66
2024/02/25 00:52:21;;;;;;;;;;;;;;;5.76;89.66;99063.63;5117081;28;19930;-66
2024/02/25 00:54:50;;;;;;;;;;;;;;;5.74;89.63;99067.78;5117094;28;20373;-65
2024/02/25 00:57:19;;;;;;;;;;;;;;;5.67;89.53;99063.53;5117081;28;19923;-66
2024/02/25 00:59:48;;;;;;;;;;;;;;;5.65;89.07;99062.66;5116669;28;19976;-66
2024/02/25 01:02:16;;;;;;;;;;;;;;;5.67;89.20;99053.41;5116764;28;19920;-66
2024/02/25 01:04:46;;;;;;;;;;;;;;;5.66;89.11;99056.78;5116443;28;19920;-66
2024/02/25 01:07:15;;;;;;;;;;;;;;;5.68;89.86;99060.16;5116141;28;19919;-66
2024/02/25 01:09:43;;;;;;;;;;;;;;;5.67;89.36;99053.41;5115573;28;19980;-66
2024/02/25 01:12:12;;;;;;;;;;;;;;;5.66;89.34;99062.69;5116446;28;19967;-66
2024/02/25 01:14:41;;;;;;;;;;;;;;;5.65;89.55;99057.59;5115497;28;19973;-65
2024/02/25 01:17:09;;;;;;;;;;;;;;;5.62;89.15;99060.09;5115534;28;19919;-65
2024/02/25 01:19:38;;;;;;;;;;;;;;;5.58;89.08;99053.31;5116202;28;19919;-66
2024/02/25 01:22:08;;;;;;;;;;;;;;;5.56;89.27;99055.00;5116885;28;19924;-66
2024/02/25 01:24:36;;;;;;;;;;;;;;;5.51;89.70;99051.56;5097357;28;19920;-66
2024/02/25 01:27:05;;;;;;;;;;;;;;;5.47;89.41;99054.91;5116242;28;19965;-66
2024/02/25 01:29:33;;;;;;;;;;;;;;;5.52;89.58;99043.16;5116345;28;19919;-66
2024/02/25 01:32:02;;;;;;;;;;;;;;;5.43;89.43;99042.22;5116856;28;20312;-66
2024/02/25 01:34:30;;;;;;;;;;;;;;;5.42;89.87;99038.00;5115872;28;19920;-66
2024/02/25 01:36:58;;;;;;;;;;;;;;;5.37;89.40;99043.88;5115850;28;19919;-65
2024/02/25 01:39:29;;;;;;;;;;;;;;;5.34;89.22;99043.81;5116529;28;20376;-66
2024/02/25 01:41:58;;;;;;;;;;;;;;;5.27;89.54;99032.81;5115961;28;19950;-65
2024/02/25 01:44:26;;;;;;;;;;;;;;;5.23;89.25;99041.19;5116104;28;19926;-66
2024/02/25 01:46:55;;;;;;;;;;;;;;;5.23;89.37;99036.13;5114999;28;19919;-66
2024/02/25 01:49:23;;;;;;;;;;;;;;;5.23;89.47;99045.41;5115960;28;19927;-66
2024/02/25 01:51:52;;;;;;;;;;;;;;;5.18;89.26;99042.81;5114553;28;19924;-66
2024/02/25 01:54:21;;;;;;;;;;;;;;;5.10;89.43;99043.56;5115964;28;19920;-65
2024/02/25 01:56:50;;;;;;;;;;;;;;;5.08;89.48;99041.03;5116100;28;19927;-66
2024/02/25 01:59:19;;;;;;;;;;;;;;;5.09;89.52;99042.72;5115799;28;19920;-66
2024/02/25 02:01:47;;;;;;;;;;;;;;;5.06;89.36;99042.69;5114650;28;19927;-66
2024/02/25 02:04:16;;;;;;;;;;;;;;;5.03;89.59;99034.22;5115268;28;20015;-66
2024/02/25 02:06:44;;;;;;;;;;;;;;;5.07;89.54;99041.88;5115687;27;19965;-66
2024/02/25 02:09:16;;;;;;;;;;;;;;;5.06;89.67;99052.78;5115670;28;20361;-66
2024/02/25 02:11:57;;;;;;;;;;;;;;;5.04;89.88;99044.34;5116070;28;20398;-65
2024/02/25 02:14:26;;;;;;;;;;;;;;;5.07;89.71;99056.19;5115902;28;19980;-65
2024/02/25 02:16:55;;;;;;;;;;;;;;;5.04;89.92;99051.94;5115072;28;19920;-66
2024/02/25 02:19:23;;;;;;;;;;;;;;;5.03;89.73;99051.94;5115437;28;19943;-66
2024/02/25 02:21:55;;;;;;;;;;;;;;;5.04;90.29;99054.47;5115653;28;19924;-65
2024/02/25 02:24:24;;;;;;;;;;;;;;;5.00;89.68;99062.84;5114128;28;19920;-66
2024/02/25 02:26:52;;;;;;;;;;;;;;;5.02;89.93;99055.28;5115403;28;19931;-66
2024/02/25 02:29:21;;;;;;;;;;;;;;;5.05;89.82;99052.78;5115288;28;20280;-66
2024/02/25 02:31:50;;;;;;;;;;;;;;;5.01;90.11;99056.97;5115012;28;19974;-66
2024/02/25 02:34:19;;;;;;;;;;;;;;;4.97;90.02;99052.69;5115263;28;19933;-66
2024/02/25 02:36:49;;;;;;;;;;;;;;;4.97;89.89;99051.84;5115185;28;20014;-66
2024/02/25 02:39:19;;;;;;;;;;;;;;;4.96;90.16;99051.03;5113855;28;19919;-66
2024/02/25 02:41:47;;;;;;;;;;;;;;;4.91;90.02;99052.66;5115025;28;20269;-66
2024/02/25 02:44:16;;;;;;;;;;;;;;;4.90;90.50;99060.19;5115002;28;19977;-66
2024/02/25 02:46:44;;;;;;;;;;;;;;;4.87;90.01;99063.53;5113763;28;20250;-66
2024/02/25 02:49:12;;;;;;;;;;;;;;;4.87;90.09;99060.19;5114648;28;20356;-66
2024/02/25 02:51:41;;;;;;;;;;;;;;;4.86;89.93;99058.47;5114802;28;20018;-66
2024/02/25 02:54:09;;;;;;;;;;;;;;;4.83;90.45;99049.16;5115000;28;19920;-66
2024/02/25 02:56:39;;;;;;;;;;;;;;;4.85;90.07;99056.78;5114985;28;19977;-65
2024/02/25 02:59:08;;;;;;;;;;;;;;;4.89;90.29;99064.44;5115155;28;19985;-65
2024/02/25 03:01:36;;;;;;;;;;;;;;;4.88;90.14;99061.88;5115128;28;19924;-66
2024/02/25 03:04:04;;;;;;;;;;;;;;;4.87;90.20;99068.59;5114417;28;20353;-66
2024/02/25 03:06:33;;;;;;;;;;;;;;;4.82;89.98;99067.72;5113485;28;19923;-65
2024/02/25 03:09:02;;;;;;;;;;;;;;;4.79;90.04;99065.13;5114636;28;20292;-66
2024/02/25 03:11:30;;;;;;;;;;;;;;;4.79;89.76;99072.72;5113477;28;19926;-65
2024/02/25 03:14:00;;;;;;;;;;;;;;;4.74;90.17;99060.03;5114610;28;20289;-65
2024/02/25 03:16:29;;;;;;;;;;;;;;;4.75;89.92;99065.94;5114758;28;19958;-66
2024/02/25 03:18:57;;;;;;;;;;;;;;;4.73;90.14;99065.91;5114501;28;20320;-65
2024/02/25 03:21:26;;;;;;;;;;;;;;;4.67;89.86;99067.50;5114316;28;20369;-66
2024/02/25 03:23:54;;;;;;;;;;;;;;;4.63;90.17;99075.91;5113450;28;20265;-65
2024/02/25 03:26:23;;;;;;;;;;;;;;;4.63;90.18;99071.66;5114423;28;19927;-66
2024/02/25 03:28:51;;;;;;;;;;;;;;;4.62;90.07;99070.00;5114433;28;20046;-65
2024/02/25 03:31:23;;;;;;;;;;;;;;;4.63;90.22;99061.56;5118582;28;20364;-65
2024/02/25 03:33:52;;;;;;;;;;;;;;;4.61;89.98;99067.41;5118401;28;19958;-65
2024/02/25 03:36:20;;;;;;;;;;;;;;;4.60;90.17;99056.50;5118668;28;19919;-65
2024/02/25 03:38:49;;;;;;;;;;;;;;;4.56;89.88;99062.31;5118578;28;20373;-65
2024/02/25 03:41:17;;;;;;;;;;;;;;;4.54;90.42;99065.66;5117594;28;20014;-65
2024/02/25 03:43:46;;;;;;;;;;;;;;;4.54;90.43;99058.06;5118111;28;19923;-65
2024/02/25 03:46:13;;;;;;;;;;;;;;;4.51;90.63;99060.56;5118094;28;19949;-65
2024/02/25 03:48:43;;;;;;;;;;;;;;;4.53;90.45;99056.38;5118441;27;19919;-66
2024/02/25 03:51:12;;;;;;;;;;;;;;;4.43;89.49;99057.94;5118323;28;19920;-65
2024/02/25 03:53:40;;;;;;;;;;;;;;;4.40;90.08;99046.94;5119300;28;20351;-66
2024/02/25 03:56:09;;;;;;;;;;;;;;;4.42;89.98;99055.38;5117735;28;19923;-65
2024/02/25 03:58:37;;;;;;;;;;;;;;;4.45;90.13;99065.53;5117915;28;19920;-65
2024/02/25 04:01:07;;;;;;;;;;;;;;;4.48;90.24;99055.47;5118114;28;20442;-65
2024/02/25 04:03:35;;;;;;;;;;;;;;;4.45;89.94;99056.28;5118105;28;19920;-66
2024/02/25 04:06:05;;;;;;;;;;;;;;;4.47;90.03;99063.88;5118096;28;19923;-65
2024/02/25 04:08:34;;;;;;;;;;;;;;;4.45;90.12;99055.44;5118432;28;19930;-65
2024/02/25 04:11:02;;;;;;;;;;;;;;;4.38;90.03;99059.56;5117764;28;20020;-65
2024/02/25 04:13:31;;;;;;;;;;;;;;;4.38;90.25;99058.69;5117828;28;20034;-65
2024/02/25 04:15:59;;;;;;;;;;;;;;;4.36;90.01;99055.31;5117799;28;19920;-65
2024/02/25 04:18:28;;;;;;;;;;;;;;;4.35;90.02;99054.44;5118177;28;20400;-66
2024/02/25 04:20:56;;;;;;;;;;;;;;;4.31;90.30;99052.72;5117969;28;20421;-65
2024/02/25 04:23:26;;;;;;;;;;;;;;;4.33;90.28;99061.16;5117965;28;19924;-65
2024/02/25 04:25:55;;;;;;;;;;;;;;;4.33;90.20;99072.94;5117272;28;20337;-65
2024/02/25 04:28:23;;;;;;;;;;;;;;;4.28;90.16;99061.91;5117921;28;19984;-65
2024/02/25 04:30:51;;;;;;;;;;;;;;;4.22;90.07;99064.38;5117599;28;19919;-65
2024/02/25 04:33:20;;;;;;;;;;;;;;;4.21;89.89;99071.09;5117256;28;19920;-65
2024/02/25 04:35:51;;;;;;;;;;;;;;;4.19;89.96;99062.66;5117202;28;19920;-65
2024/02/25 04:38:20;;;;;;;;;;;;;;;4.23;90.14;99073.63;5117871;28;20042;-65
2024/02/25 04:40:53;;;;;;;;;;;;;;;4.19;90.00;99069.38;5117443;28;20001;-65
2024/02/25 04:43:22;;;;;;;;;;;;;;;4.12;89.93;99070.09;5117332;28;19919;-65
2024/02/25 04:45:50;;;;;;;;;;;;;;;4.05;89.57;99075.06;5117311;28;19973;-65
2024/02/25 04:48:19;;;;;;;;;;;;;;;4.03;90.13;99070.84;5117290;28;19920;-65
2024/02/25 04:50:47;;;;;;;;;;;;;;;4.03;89.66;99079.22;5116032;28;19959;-65
2024/02/25 04:53:16;;;;;;;;;;;;;;;4.08;89.94;99075.09;5115737;28;19919;-65
2024/02/25 04:55:44;;;;;;;;;;;;;;;4.05;90.10;99077.56;5117182;28;19939;-65
2024/02/25 04:58:14;;;;;;;;;;;;;;;4.00;89.81;99089.31;5116795;28;20018;-65
2024/02/25 05:00:44;;;;;;;;;;;;;;;3.95;89.84;99083.34;5115809;28;19927;-65
2024/02/25 05:03:13;;;;;;;;;;;;;;;3.98;89.50;99075.78;5115797;28;19924;-65
2024/02/25 05:05:41;;;;;;;;;;;;;;;3.93;89.91;99079.94;5115604;28;19919;-66
2024/02/25 05:08:10;;;;;;;;;;;;;;;3.92;89.56;99093.38;5116724;28;19927;-65
2024/02/25 05:10:39;;;;;;;;;;;;;;;3.90;89.43;99089.97;5117189;28;20010;-65
2024/02/25 05:13:07;;;;;;;;;;;;;;;3.90;89.21;99089.97;5116754;27;19920;-65
2024/02/25 05:15:38;;;;;;;;;;;;;;;3.90;89.27;99089.13;5115453;28;20345;-65
2024/02/25 05:18:07;;;;;;;;;;;;;;;3.93;89.86;99090.03;5116780;28;19926;-65
2024/02/25 05:20:35;;;;;;;;;;;;;;;3.95;89.62;99093.44;5116950;28;19923;-65
2024/02/25 05:23:05;;;;;;;;;;;;;;;3.94;89.69;99095.91;5116615;28;19919;-65
2024/02/25 05:25:34;;;;;;;;;;;;;;;3.97;90.05;99091.78;5116119;27;19927;-65
2024/02/25 05:28:03;;;;;;;;;;;;;;;3.97;89.72;99091.78;5116846;28;19919;-65
2024/02/25 05:30:32;;;;;;;;;;;;;;;4.00;89.52;99096.03;5116511;28;20328;-65
2024/02/25 05:33:02;;;;;;;;;;;;;;;4.02;89.84;99100.28;5116228;28;19926;-65
2024/02/25 05:35:30;;;;;;;;;;;;;;;3.94;89.96;99101.81;5116389;28;20423;-65
2024/02/25 05:37:59;;;;;;;;;;;;;;;3.94;89.92;99108.53;5116312;28;19926;-65
2024/02/25 05:40:27;;;;;;;;;;;;;;;3.95;89.71;99107.72;5116510;28;19920;-65
2024/02/25 05:42:55;;;;;;;;;;;;;;;3.89;89.68;99103.41;5115882;28;20289;-65
2024/02/25 05:45:24;;;;;;;;;;;;;;;3.90;89.80;99110.16;5116093;28;19926;-65
2024/02/25 05:47:52;;;;;;;;;;;;;;;3.89;89.45;99110.97;5116422;28;19926;-65
2024/02/25 05:50:22;;;;;;;;;;;;;;;3.84;89.22;99115.09;5116112;28;19984;-65
2024/02/25 05:52:50;;;;;;;;;;;;;;;3.86;89.84;99115.97;5115527;28;19956;-65
2024/02/25 05:55:19;;;;;;;;;;;;;;;3.90;89.59;99115.22;5115891;28;19920;-66
2024/02/25 05:57:48;;;;;;;;;;;;;;;3.80;89.55;99113.34;5115950;28;20010;-65
2024/02/25 06:00:15;;;;;;;;;;;;;;;3.87;89.79;99109.25;5115747;28;19919;-65
2024/02/25 06:02:46;;;;;;;;;;;;;;;3.89;89.87;99117.69;5115839;28;19931;-65
2024/02/25 06:05:15;;;;;;;;;;;;;;;3.89;90.07;99118.56;5115730;28;19959;-65
2024/02/25 06:07:46;;;;;;;;;;;;;;;3.93;89.89;99115.28;5114847;28;20075;-65
2024/02/25 06:10:15;;;;;;;;;;;;;;;3.96;89.65;99110.25;5115634;28;19923;-65
2024/02/25 06:12:43;;;;;;;;;;;;;;;3.99;89.93;99114.50;5116171;28;19920;-65
2024/02/25 06:15:15;;;;;;;;;;;;;;;4.03;89.69;99112.06;5115227;28;19927;-65
2024/02/25 06:17:43;;;;;;;;;;;;;;;4.06;89.75;99107.06;5115535;27;20388;-64
2024/02/25 06:20:12;;;;;;;;;;;;;;;4.12;89.86;99110.50;5115493;28;19933;-65
2024/02/25 06:22:41;;;;;;;;;;;;;;;4.19;89.86;99098.00;5115353;28;19942;-64
2024/02/25 06:25:11;;;;;;;;;;;;;;;4.28;89.54;99099.81;5115073;28;20006;-65
2024/02/25 06:27:40;;;;;;;;;;;;;;;4.43;89.81;99107.63;5115386;28;19927;-65
2024/02/25 06:30:09;;;;;;;;;;;;;;;4.56;89.96;99099.34;5115643;28;19920;-65
2024/02/25 06:32:38;;;;;;;;;;;;;;;4.68;89.88;99100.38;5114885;28;19919;-65
2024/02/25 06:35:07;;;;;;;;;;;;;;;4.89;89.92;99104.88;5115084;28;19920;-65
2024/02/25 06:37:36;;;;;;;;;;;;;;;5.06;90.05;99108.44;5115454;28;20315;-65
2024/02/25 06:40:04;;;;;;;;;;;;;;;5.26;90.01;99103.59;5114793;28;20285;-65
2024/02/25 06:42:34;;;;;;;;;;;;;;;5.50;90.17;99101.31;5113895;28;19919;-65
2024/02/25 06:45:04;;;;;;;;;;;;;;;5.62;89.83;99105.66;5113687;28;19920;-66
2024/02/25 06:47:32;;;;;;;;;;;;;;;5.82;89.68;99099.09;5115400;28;19927;-65
2024/02/25 06:50:01;;;;;;;;;;;;;;;6.04;89.53;99099.34;5114929;28;20369;-66
2024/02/25 06:52:29;;;;;;;;;;;;;;;6.18;89.96;99101.97;5114962;28;19924;-65
2024/02/25 06:54:58;;;;;;;;;;;;;;;6.34;89.87;99107.97;5114952;28;20349;-66
2024/02/25 06:57:26;;;;;;;;;;;;;;;6.44;89.24;99092.84;5113772;28;19927;-65
2024/02/25 06:59:57;;;;;;;;;;;;;;;6.58;89.39;99081.09;5114414;28;19942;-66
2024/02/25 07:02:26;;;;;;;;;;;;;;;6.74;89.22;99077.78;5113997;28;19927;-66
2024/02/25 07:04:55;;;;;;;;;;;;;;;6.96;89.41;99081.25;5113447;28;19924;-66
2024/02/25 07:07:23;;;;;;;;;;;;;;;7.16;88.57;99081.34;5114655;28;20385;-66
2024/02/25 07:09:57;;;;;;;;;;;;;;;7.34;88.42;99076.34;5113491;28;20323;-66
2024/02/25 07:12:26;;;;;;;;;;;;;;;7.52;89.12;99076.34;5114861;28;20006;-66
2024/02/25 07:14:56;;;;;;;;;;;;;;;7.66;88.98;99077.22;5114569;28;19942;-66
2024/02/25 07:17:25;;;;;;;;;;;;;;;7.81;87.95;99082.31;5114691;28;19919;-66
2024/02/25 07:19:53;;;;;;;;;;;;;;;7.97;88.03;99076.38;5114264;28;19919;-66
2024/02/25 07:22:22;;;;;;;;;;;;;;;8.12;87.33;99055.19;5114653;28;19926;-66
2024/02/25 07:24:50;;;;;;;;;;;;;;;8.20;87.43;99057.75;5114298;28;19919;-66
2024/02/25 07:27:19;;;;;;;;;;;;;;;8.35;86.79;99080.63;5112568;28;19987;-67
2024/02/25 07:29:48;;;;;;;;;;;;;;;8.52;86.69;99076.34;5094149;28;19970;-67
2024/02/25 07:32:17;;;;;;;;;;;;;;;8.72;85.90;99066.97;5092581;28;19922;-66
2024/02/25 07:34:46;;;;;;;;;;;;;;;8.88;85.98;99071.13;5093677;28;19920;-66
2024/02/25 07:37:14;;;;;;;;;;;;;;;8.97;85.68;99066.03;5094067;28;19920;-67
2024/02/25 07:39:43;;;;;;;;;;;;;;;9.11;85.00;99064.28;5094211;28;19920;-66
2024/02/25 07:42:11;;;;;;;;;;;;;;;9.31;84.45;99051.41;5092539;28;20036;-66
2024/02/25 07:44:40;;;;;;;;;;;;;;;9.43;84.17;99061.53;5092693;28;20353;-66
2024/02/25 07:47:08;;;;;;;;;;;;;;;9.55;83.87;99060.63;5094234;28;20110;-66
2024/02/25 07:49:38;;;;;;;;;;;;;;;9.73;83.73;99057.94;5093719;28;19926;-66
2024/02/25 07:52:10;;;;;;;;;;;;;;;9.95;83.12;99067.09;5094025;28;19970;-66
2024/02/25 07:54:38;;;;;;;;;;;;;;;10.08;83.05;99053.38;5094009;28;19928;-66
2024/02/25 07:57:08;;;;;;;;;;;;;;;10.19;82.38;99055.88;5093753;28;20016;-66
2024/02/25 07:59:38;;;;;;;;;;;;;;;10.32;82.52;99058.28;5094047;28;20369;-66
2024/02/25 08:02:07;;;;;;;;;;;;;;;10.41;82.08;99063.31;5109467;28;19919;-66
2024/02/25 08:04:37;;;;;;;;;;;;;;;10.46;81.68;99056.44;5114273;28;20010;-66
2024/02/25 08:07:06;;;;;;;;;;;;;;;10.49;80.87;99051.31;5114243;28;20327;-66
2024/02/25 08:09:35;;;;;;;;;;;;;;;10.58;80.97;99058.88;5114307;28;19984;-66
2024/02/25 08:12:05;;;;;;;;;;;;;;;10.65;78.32;99049.47;5112841;28;19919;-66
2024/02/25 08:14:34;;;;;;;;;;;;;;;10.80;77.05;99061.19;5114582;28;19926;-65
2024/02/25 08:17:02;;;;;;;;;;;;;;;10.88;75.23;99064.50;5116555;28;19958;-65
2024/02/25 08:19:31;;;;;;;;;;;;;;;10.93;73.43;99057.63;5110226;28;19920;-66
2024/02/25 08:22:00;;;;;;;;;;;;;;;10.94;73.33;99059.31;5097390;28;20506;-65
2024/02/25 08:24:30;;;;;;;;;;;;;;;11.01;73.87;99060.94;5096668;28;19931;-66
2024/02/25 08:26:58;;;;;;;;;;;;;;;11.10;74.15;99055.72;5097458;28;19996;-65
2024/02/25 08:29:27;;;;;;;;;;;;;;;11.17;71.66;99063.28;5097259;28;19920;-66
2024/02/25 08:31:55;;;;;;;;;;;;;;;11.15;71.67;99048.84;5097194;28;19920;-66
2024/02/25 08:34:25;;;;;;;;;;;;;;;11.24;71.14;99056.38;5096760;28;20361;-67
2024/02/25 08:36:53;;;;;;;;;;;;;;;11.30;69.78;99053.75;5097119;28;19920;-66
2024/02/25 08:39:23;;;;;;;;;;;;;;;11.37;68.60;99065.56;5097181;28;20242;-66
2024/02/25 08:41:54;;;;;;;;;;;;;;;11.45;69.69;99053.50;5096930;28;20524;-67
2024/02/25 08:44:22;;;;;;;;;;;;;;;11.49;70.07;99065.41;5096942;28;19965;-66
2024/02/25 08:46:51;;;;;;;;;;;;;;;11.48;69.06;99061.13;5096797;28;19920;-66
2024/02/25 08:49:22;;;;;;;;;;;;;;;11.47;68.83;99056.06;5097114;28;19920;-66
2024/02/25 08:51:50;;;;;;;;;;;;;;;11.55;69.42;99055.06;5096823;28;19980;-66
2024/02/25 08:54:19;;;;;;;;;;;;;;;11.69;69.29;99055.72;5096841;28;20305;-66
2024/02/25 08:56:47;;;;;;;;;;;;;;;11.75;69.28;99060.78;5096521;28;19927;-66
2024/02/25 08:59:17;;;;;;;;;;;;;;;11.82;68.93;99064.06;5096388;28;19924;-66
2024/02/25 09:01:46;;;;;;;;;;;;;;;11.79;69.23;99059.84;5095817;28;19934;-66
2024/02/25 09:04:14;;;;;;;;;;;;;;;11.80;67.85;99053.03;5096115;28;19920;-66
2024/02/25 09:06:43;;;;;;;;;;;;;;;11.71;67.59;99058.28;5096608;28;19926;-67
2024/02/25 09:09:11;;;;;;;;;;;;;;;11.71;68.21;99065.94;5095554;28;19953;-66
2024/02/25 09:11:41;;;;;;;;;;;;;;;11.70;68.08;99059.13;5096474;28;19920;-66
2024/02/25 09:14:10;;;;;;;;;;;;;;;11.83;68.21;99061.47;5098654;28;19934;-66
2024/02/25 09:16:39;;;;;;;;;;;;;;;11.93;68.13;99055.34;5116383;28;19965;-66
2024/02/25 09:19:08;;;;;;;;;;;;;;;12.01;68.10;99050.97;5117050;28;19962;-66
2024/02/25 09:21:36;;;;;;;;;;;;;;;11.95;66.78;99056.16;5116696;28;19920;-66
2024/02/25 09:24:05;;;;;;;;;;;;;;;11.98;68.38;99053.56;5115306;28;19942;-66
2024/02/25 09:26:34;;;;;;;;;;;;;;;12.08;68.04;99057.66;5115135;27;19963;-66
2024/02/25 09:29:02;;;;;;;;;;;;;;;12.05;68.16;99047.47;5116591;28;19919;-66
2024/02/25 09:31:31;;;;;;;;;;;;;;;12.01;67.35;99040.72;5116416;28;19919;-66
2024/02/25 09:34:02;;;;;;;;;;;;;;;12.03;67.80;99044.09;5116336;28;19924;-66
2024/02/25 09:36:32;;;;;;;;;;;;;;;12.07;67.54;99040.63;5115077;28;19920;-66
2024/02/25 09:39:03;;;;;;;;;;;;;;;12.08;67.48;99044.88;5116427;28;20262;-66
2024/02/25 09:41:35;;;;;;;;;;;;;;;12.03;67.74;99039.00;5116362;28;20046;-66
2024/02/25 09:44:04;;;;;;;;;;;;;;;12.01;69.05;99045.84;5116227;28;19927;-66
2024/02/25 09:46:33;;;;;;;;;;;;;;;12.03;67.51;99054.34;5116189;28;19973;-66
2024/02/25 09:49:05;;;;;;;;;;;;;;;12.02;67.43;99044.16;5116407;28;20296;-66
2024/02/25 09:51:35;;;;;;;;;;;;;;;12.00;68.06;99056.09;5116046;28;19919;-66
2024/02/25 09:54:06;;;;;;;;;;;;;;;11.98;67.30;99051.00;5116382;28;19955;-66
2024/02/25 09:56:35;;;;;;;;;;;;;;;12.01;67.41;99040.72;5115691;28;19923;-66
2024/02/25 09:59:05;;;;;;;;;;;;;;;12.09;68.11;99033.75;5115854;28;19954;-67
2024/02/25 10:01:33;;;;;;;;;;;;;;;12.22;68.34;99048.88;5115929;28;19920;-65
2024/02/25 10:04:03;;;;;;;;;;;;;;;12.23;67.68;99041.22;5114361;28;19926;-66
2024/02/25 10:06:36;;;;;;;;;;;;;;;12.23;67.44;99040.34;5115395;28;19942;-65
2024/02/25 10:09:04;;;;;;;;;;;;;;;12.13;66.90;99033.72;5115918;28;19920;-66
2024/02/25 10:11:34;;;;;;;;;;;;;;;12.23;67.52;99030.13;5115640;28;19919;-66
2024/02/25 10:14:03;;;;;;;;;;;;;;;12.23;67.26;99030.97;5115337;28;20373;-66
2024/02/25 10:16:31;;;;;;;;;;;;;;;12.29;66.92;99033.41;5115310;28;19926;-66
2024/02/25 10:18:59;;;;;;;;;;;;;;;12.28;66.39;99033.44;5115470;28;20289;-65
2024/02/25 10:21:29;;;;;;;;;;;;;;;12.37;66.64;99025.59;5115482;28;19919;-66
2024/02/25 10:23:58;;;;;;;;;;;;;;;12.40;66.45;99028.09;5115370;28;19926;-66
2024/02/25 10:26:27;;;;;;;;;;;;;;;12.44;65.70;99024.63;5115225;28;20394;-67
2024/02/25 10:29:05;;;;;;;;;;;;;;;12.44;65.83;99012.66;5115221;28;20006;-67
2024/02/25 10:31:34;;;;;;;;;;;;;;;12.42;65.73;99023.81;5115000;28;19964;-66
2024/02/25 10:34:02;;;;;;;;;;;;;;;12.48;65.64;99021.09;5115279;28;20010;-66
2024/02/25 10:36:33;;;;;;;;;;;;;;;12.53;64.43;99025.28;5113566;28;20308;-67
2024/02/25 10:39:02;;;;;;;;;;;;;;;12.43;64.25;99017.81;5114874;28;19966;-66
2024/02/25 10:41:31;;;;;;;;;;;;;;;12.42;64.33;99021.25;5114792;28;19923;-66
2024/02/25 10:44:02;;;;;;;;;;;;;;;12.38;63.96;99009.38;5113798;28;19924;-66
2024/02/25 10:46:38;;;;;;;;;;;;;;;12.43;64.34;99013.53;5115015;28;19920;-65
2024/02/25 10:49:07;;;;;;;;;;;;;;;12.40;63.75;99002.53;5113561;28;20320;-66
2024/02/25 10:51:38;;;;;;;;;;;;;;;12.40;63.48;98999.97;5115041;28;19965;-66
2024/02/25 10:54:09;;;;;;;;;;;;;;;12.42;64.11;98998.22;5114030;28;19961;-66
2024/02/25 10:56:40;;;;;;;;;;;;;;;12.36;64.07;99001.72;5114802;28;19942;-66
2024/02/25 10:59:09;;;;;;;;;;;;;;;12.36;65.00;99000.88;5097032;28;19924;-66
2024/02/25 11:01:38;;;;;;;;;;;;;;;12.37;64.93;99000.00;5114024;28;20326;-66
2024/02/25 11:04:07;;;;;;;;;;;;;;;12.35;65.05;98988.97;5095535;28;19955;-67
2024/02/25 11:06:39;;;;;;;;;;;;;;;12.30;64.82;98993.31;5094097;28;20014;-65
2024/02/25 11:09:10;;;;;;;;;;;;;;;12.30;65.45;98990.75;5096942;28;19920;-66
2024/02/25 11:11:38;;;;;;;;;;;;;;;12.27;65.22;98990.81;5094369;28;19920;-66
2024/02/25 11:14:07;;;;;;;;;;;;;;;12.28;66.09;98987.41;5093357;28;19919;-66
2024/02/25 11:16:39;;;;;;;;;;;;;;;12.30;66.23;98975.41;5094276;28;19920;-66
2024/02/25 11:19:09;;;;;;;;;;;;;;;12.24;65.40;98978.09;5094331;28;19942;-66
2024/02/25 11:21:39;;;;;;;;;;;;;;;12.24;65.39;98975.53;5094434;28;20441;-66
2024/02/25 11:24:12;;;;;;;;;;;;;;;12.17;65.19;98974.78;5094397;28;20294;-66
2024/02/25 11:26:41;;;;;;;;;;;;;;;12.21;65.98;98970.47;5094217;28;20039;-66
2024/02/25 11:29:19;;;;;;;;;;;;;;;12.28;66.25;98978.00;5094206;28;19924;-66
2024/02/25 11:31:48;;;;;;;;;;;;;;;12.32;66.12;98968.53;5094037;28;19924;-66
2024/02/25 11:34:18;;;;;;;;;;;;;;;12.30;65.30;98966.03;5093823;28;20026;-66
2024/02/25 11:36:51;;;;;;;;;;;;;;;12.36;66.06;98965.91;5094101;28;19920;-66
2024/02/25 11:39:21;;;;;;;;;;;;;;;12.50;66.02;98957.97;5094226;28;19927;-66
2024/02/25 11:41:49;;;;;;;;;;;;;;;12.56;65.00;98961.25;5094453;28;19920;-66
2024/02/25 11:44:18;;;;;;;;;;;;;;;12.55;64.92;98956.13;5093909;28;19927;-67
2024/02/25 11:46:47;;;;;;;;;;;;;;;12.58;64.11;98950.94;5094066;28;19927;-65
2024/02/25 11:49:17;;;;;;;;;;;;;;;12.50;63.98;98950.28;5094314;28;19928;-65
2024/02/25 11:51:47;;;;;;;;;;;;;;;12.52;65.18;98951.09;5097952;28;19920;-66
2024/02/25 11:54:17;;;;;;;;;;;;;;;12.55;65.47;98945.88;5097547;28;19920;-66
2024/02/25 11:56:45;;;;;;;;;;;;;;;12.56;65.36;98947.59;5097901;28;20023;-66
2024/02/25 11:59:14;;;;;;;;;;;;;;;12.52;63.91;98945.97;5097783;28;20281;-66
2024/02/25 12:01:42;;;;;;;;;;;;;;;12.52;64.52;98940.84;5097751;28;19964;-66
2024/02/25 12:04:10;;;;;;;;;;;;;;;12.53;63.68;98942.53;5097490;28;20411;-65
2024/02/25 12:06:39;;;;;;;;;;;;;;;12.43;63.48;98935.94;5096483;28;19926;-65
2024/02/25 12:09:08;;;;;;;;;;;;;;;12.36;64.10;98940.31;5097672;28;19920;-66
2024/02/25 12:11:39;;;;;;;;;;;;;;;12.34;63.38;98936.09;5097574;28;19920;-65
2024/02/25 12:14:17;;;;;;;;;;;;;;;12.38;62.96;98938.56;5097598;28;19927;-66
2024/02/25 12:16:46;;;;;;;;;;;;;;;12.40;63.68;98930.88;5097356;28;19920;-66
2024/02/25 12:19:16;;;;;;;;;;;;;;;12.42;64.10;98936.78;5096358;28;20274;-66
2024/02/25 12:21:48;;;;;;;;;;;;;;;12.42;63.82;98934.22;5097775;28;20386;-65
2024/02/25 12:24:17;;;;;;;;;;;;;;;12.42;63.43;98934.22;5097319;28;19989;-66
2024/02/25 12:26:51;;;;;;;;;;;;;;;12.47;64.18;98928.16;5096961;28;19920;-66
2024/02/25 12:29:21;;;;;;;;;;;;;;;12.45;63.51;98929.06;5096970;28;19920;-65
2024/02/25 12:31:49;;;;;;;;;;;;;;;12.44;63.51;98930.78;5097217;28;19920;-65
2024/02/25 12:34:18;;;;;;;;;;;;;;;12.48;62.72;98928.97;5095794;28;19926;-65
2024/02/25 12:36:47;;;;;;;;;;;;;;;12.46;62.00;98936.69;5097155;28;20014;-66
2024/02/25 12:39:20;;;;;;;;;;;;;;;12.49;62.47;98935.78;5097084;28;19926;-66
2024/02/25 12:41:58;;;;;;;;;;;;;;;12.50;63.10;98927.25;5097339;28;19966;-66
2024/02/25 12:44:29;;;;;;;;;;;;;;;12.47;63.03;98922.19;5096806;28;19927;-66
2024/02/25 12:46:57;;;;;;;;;;;;;;;12.45;62.80;98921.38;5096915;28;19966;-66
2024/02/25 12:49:26;;;;;;;;;;;;;;;12.46;62.87;98921.34;5096887;28;19920;-66
2024/02/25 12:51:55;;;;;;;;;;;;;;;12.56;63.77;98916.88;5095515;28;20373;-66
2024/02/25 12:54:23;;;;;;;;;;;;;;;12.61;64.47;98915.06;5095488;28;19970;-66
2024/02/25 12:56:52;;;;;;;;;;;;;;;12.59;62.59;98911.69;5096639;28;19920;-66
2024/02/25 12:59:22;;;;;;;;;;;;;;;12.59;62.72;98909.13;5096845;28;19920;-67
2024/02/25 13:01:50;;;;;;;;;;;;;;;12.56;61.85;98907.47;5097148;28;20373;-65